Terminal Aerodrome Forecast
Issued by NWS Charleston, WV

Current Version | Previous Version | Graphics & Text | Print | Product List | Glossary On
Versions: 1 2 3 4 5 6 7 8 9 10 11 12 13 14 15 16 17 18 19 20 21 22
000
FTUS41 KRLX 250904 AAA
TAFPKB
TAF AMD
KPKB 250904Z 2509/2606 VRB03KT 6SM BR SCT001
      TEMPO 2509/2511 3SM BR BKN001
     FM251100 VRB03KT 6SM BR BKN030
     FM251400 01003KT P6SM BKN025
     FM251800 02003KT P6SM SCT030=

USA.gov is the U.S. government's official web portal to all federal, state and local government web resources and services.